AAL5A CYKA-CYYC
Flight info
| Callsign | AAL5A |
|---|---|
| Flight time | 1h 2m |
| Altitude | 25000 |
| Route | MENBO DCT NORET IGVEP7 |
| Aircraft | DH8D/M-SDE2E3FGRY/H |
Departure
| Time | 2026-04-25 20:02 |
|---|---|
| Airport | Kamloops John Moose Fulton Field Regional Airport (CYKA) |
Arrival
| Time | 2026-04-25 21:05 |
|---|---|
| Airport | Calgary International Airport (CYYC) |
| Time | Latitude | Longitude | Altitude | Speed | Heading |
|---|---|---|---|---|---|
| 2026-04-25 19:49 | 50.70483 | -120.44115 | 1142 ft | 0 kts | 0° |
| 2026-04-25 19:57 | 50.70495 | -120.44084 | 1142 ft | 5 kts | 113° |
| 2026-04-25 19:57 | 50.70464 | -120.44076 | 1142 ft | 4 kts | 205° |
| 2026-04-25 19:57 | 50.70435 | -120.44134 | 1142 ft | 9 kts | 238° |
| 2026-04-25 19:57 | 50.70403 | -120.44217 | 1142 ft | 8 kts | 238° |
| 2026-04-25 19:58 | 50.70392 | -120.44306 | 1140 ft | 9 kts | 287° |
| 2026-04-25 19:58 | 50.70417 | -120.44434 | 1139 ft | 15 kts | 283° |
| 2026-04-25 19:58 | 50.70441 | -120.44591 | 1139 ft | 14 kts | 284° |
| 2026-04-25 19:58 | 50.70467 | -120.44762 | 1139 ft | 17 kts | 284° |
| 2026-04-25 19:59 | 50.70497 | -120.44955 | 1139 ft | 18 kts | 284° |
| 2026-04-25 19:59 | 50.70515 | -120.45155 | 1139 ft | 17 kts | 250° |
| 2026-04-25 19:59 | 50.70470 | -120.45286 | 1139 ft | 7 kts | 239° |
| 2026-04-25 19:59 | 50.70469 | -120.45290 | 1139 ft | 0 kts | 239° |
| 2026-04-25 20:00 | 50.70467 | -120.45294 | 1139 ft | 3 kts | 239° |
| 2026-04-25 20:00 | 50.70439 | -120.45367 | 1137 ft | 20 kts | 238° |
| 2026-04-25 20:00 | 50.70442 | -120.45715 | 1132 ft | 25 kts | 284° |
| 2026-04-25 20:00 | 50.70480 | -120.45980 | 1132 ft | 25 kts | 286° |
| 2026-04-25 20:01 | 50.70492 | -120.46195 | 1129 ft | 0 kts | 98° |
| 2026-04-25 20:01 | 50.70484 | -120.46127 | 1130 ft | 35 kts | 102° |
| 2026-04-25 20:01 | 50.70359 | -120.45242 | 1138 ft | 122 kts | 103° |
| 2026-04-25 20:02 | 50.70106 | -120.43731 | 1354 ft | 152 kts | 107° |
| 2026-04-25 20:02 | 50.69783 | -120.42088 | 1887 ft | 166 kts | 108° |
| 2026-04-25 20:02 | 50.69403 | -120.40336 | 2497 ft | 172 kts | 109° |
| 2026-04-25 20:02 | 50.68971 | -120.38468 | 2808 ft | 196 kts | 107° |
| 2026-04-25 20:03 | 50.68661 | -120.36309 | 3211 ft | 206 kts | 98° |
| 2026-04-25 20:03 | 50.68406 | -120.34065 | 3756 ft | 211 kts | 99° |
| 2026-04-25 20:03 | 50.68125 | -120.31802 | 4341 ft | 214 kts | 99° |
| 2026-04-25 20:03 | 50.67823 | -120.29506 | 4934 ft | 217 kts | 99° |
| 2026-04-25 20:04 | 50.67505 | -120.27176 | 5534 ft | 219 kts | 99° |
| 2026-04-25 20:04 | 50.67180 | -120.24867 | 6124 ft | 221 kts | 99° |
| 2026-04-25 20:04 | 50.66842 | -120.22518 | 6708 ft | 222 kts | 99° |
| 2026-04-25 20:04 | 50.66491 | -120.20118 | 7316 ft | 225 kts | 99° |
| 2026-04-25 20:05 | 50.66138 | -120.17731 | 7883 ft | 228 kts | 99° |
| 2026-04-25 20:05 | 50.65776 | -120.15312 | 8514 ft | 228 kts | 99° |
| 2026-04-25 20:05 | 50.65413 | -120.12896 | 9108 ft | 228 kts | 100° |
| 2026-04-25 20:05 | 50.65044 | -120.10452 | 9635 ft | 233 kts | 100° |
| 2026-04-25 20:06 | 50.64673 | -120.08009 | 10286 ft | 232 kts | 100° |
| 2026-04-25 20:06 | 50.64295 | -120.05527 | 10927 ft | 233 kts | 100° |
| 2026-04-25 20:06 | 50.63918 | -120.03061 | 11530 ft | 234 kts | 99° |
| 2026-04-25 20:06 | 50.63541 | -120.00598 | 12098 ft | 236 kts | 98° |
| 2026-04-25 20:07 | 50.63151 | -119.98057 | 12667 ft | 237 kts | 98° |
| 2026-04-25 20:07 | 50.62771 | -119.95537 | 13239 ft | 238 kts | 96° |
| 2026-04-25 20:07 | 50.62616 | -119.92999 | 13777 ft | 235 kts | 85° |
| 2026-04-25 20:07 | 50.62598 | -119.90415 | 14302 ft | 236 kts | 84° |
| 2026-04-25 20:08 | 50.62589 | -119.87859 | 14811 ft | 237 kts | 84° |
| 2026-04-25 20:08 | 50.62583 | -119.85257 | 15271 ft | 239 kts | 84° |
| 2026-04-25 20:08 | 50.62578 | -119.82646 | 15743 ft | 240 kts | 83° |
| 2026-04-25 20:08 | 50.62573 | -119.80029 | 16185 ft | 241 kts | 83° |
| 2026-04-25 20:09 | 50.62568 | -119.77388 | 16594 ft | 243 kts | 83° |
| 2026-04-25 20:09 | 50.62563 | -119.74714 | 17028 ft | 244 kts | 83° |
| 2026-04-25 20:09 | 50.62558 | -119.72044 | 17430 ft | 246 kts | 83° |
| 2026-04-25 20:09 | 50.62552 | -119.69367 | 17826 ft | 247 kts | 83° |
| 2026-04-25 20:10 | 50.62547 | -119.66650 | 18199 ft | 249 kts | 83° |
| 2026-04-25 20:10 | 50.62540 | -119.63950 | 18570 ft | 251 kts | 83° |
| 2026-04-25 20:10 | 50.62533 | -119.61203 | 18902 ft | 253 kts | 83° |
| 2026-04-25 20:10 | 50.62525 | -119.58420 | 19290 ft | 254 kts | 83° |
| 2026-04-25 20:11 | 50.62517 | -119.55627 | 19605 ft | 257 kts | 83° |
| 2026-04-25 20:11 | 50.62508 | -119.52821 | 19919 ft | 259 kts | 84° |
| 2026-04-25 20:11 | 50.62498 | -119.49993 | 20223 ft | 260 kts | 84° |
| 2026-04-25 20:11 | 50.62487 | -119.47158 | 20500 ft | 263 kts | 84° |
| 2026-04-25 20:12 | 50.62476 | -119.44269 | 20789 ft | 264 kts | 84° |
| 2026-04-25 20:12 | 50.62464 | -119.41393 | 21041 ft | 266 kts | 84° |
| 2026-04-25 20:12 | 50.62451 | -119.38468 | 21302 ft | 267 kts | 84° |
| 2026-04-25 20:12 | 50.62442 | -119.36540 | 21468 ft | 268 kts | 85° |
| 2026-04-25 20:13 | 50.62423 | -119.32606 | 21756 ft | 271 kts | 86° |
| 2026-04-25 20:13 | 50.62407 | -119.29636 | 22002 ft | 272 kts | 86° |
| 2026-04-25 20:13 | 50.62391 | -119.26665 | 22210 ft | 274 kts | 86° |
| 2026-04-25 20:13 | 50.62373 | -119.23669 | 22420 ft | 275 kts | 86° |
| 2026-04-25 20:14 | 50.62355 | -119.20644 | 22645 ft | 277 kts | 86° |
| 2026-04-25 20:14 | 50.62336 | -119.17650 | 22848 ft | 278 kts | 86° |
| 2026-04-25 20:14 | 50.62316 | -119.14592 | 23058 ft | 279 kts | 86° |
| 2026-04-25 20:14 | 50.62295 | -119.11559 | 23230 ft | 280 kts | 86° |
| 2026-04-25 20:15 | 50.62273 | -119.08483 | 23414 ft | 281 kts | 86° |
| 2026-04-25 20:15 | 50.62250 | -119.05402 | 23592 ft | 282 kts | 86° |
| 2026-04-25 20:15 | 50.62227 | -119.02308 | 23756 ft | 284 kts | 86° |
| 2026-04-25 20:15 | 50.62203 | -118.99209 | 23956 ft | 284 kts | 86° |
| 2026-04-25 20:16 | 50.62177 | -118.96110 | 24147 ft | 284 kts | 86° |
| 2026-04-25 20:16 | 50.62151 | -118.93018 | 24331 ft | 286 kts | 86° |
| 2026-04-25 20:16 | 50.62124 | -118.89902 | 24552 ft | 287 kts | 86° |
| 2026-04-25 20:16 | 50.62095 | -118.86752 | 24774 ft | 286 kts | 86° |
| 2026-04-25 20:17 | 50.62066 | -118.83630 | 24898 ft | 290 kts | 86° |
| 2026-04-25 20:17 | 50.62036 | -118.80450 | 25072 ft | 292 kts | 87° |
| 2026-04-25 20:17 | 50.62005 | -118.77216 | 25073 ft | 298 kts | 87° |
| 2026-04-25 20:17 | 50.61974 | -118.73942 | 25076 ft | 305 kts | 86° |
| 2026-04-25 20:18 | 50.61940 | -118.70596 | 25061 ft | 307 kts | 87° |
| 2026-04-25 20:18 | 50.61904 | -118.67260 | 25053 ft | 305 kts | 87° |
| 2026-04-25 20:18 | 50.61869 | -118.63929 | 25042 ft | 303 kts | 86° |
| 2026-04-25 20:18 | 50.61832 | -118.60626 | 25036 ft | 301 kts | 86° |
| 2026-04-25 20:19 | 50.61795 | -118.57362 | 25026 ft | 300 kts | 87° |
| 2026-04-25 20:19 | 50.61757 | -118.54115 | 25017 ft | 299 kts | 86° |
| 2026-04-25 20:19 | 50.61718 | -118.50825 | 25003 ft | 298 kts | 86° |
| 2026-04-25 20:19 | 50.61678 | -118.47604 | 24991 ft | 297 kts | 86° |
| 2026-04-25 20:20 | 50.61637 | -118.44363 | 24980 ft | 296 kts | 86° |
| 2026-04-25 20:20 | 50.61596 | -118.41149 | 24977 ft | 295 kts | 86° |
| 2026-04-25 20:20 | 50.61554 | -118.37952 | 24968 ft | 294 kts | 86° |
| 2026-04-25 20:20 | 50.61510 | -118.34724 | 24957 ft | 293 kts | 88° |
| 2026-04-25 20:21 | 50.61467 | -118.31570 | 24946 ft | 292 kts | 87° |
| 2026-04-25 20:21 | 50.61422 | -118.28365 | 24938 ft | 291 kts | 87° |
| 2026-04-25 20:21 | 50.61377 | -118.25190 | 24928 ft | 291 kts | 87° |
| 2026-04-25 20:21 | 50.61331 | -118.22044 | 24929 ft | 289 kts | 87° |
| 2026-04-25 20:22 | 50.61284 | -118.18866 | 24950 ft | 287 kts | 87° |
| 2026-04-25 20:22 | 50.61253 | -118.16810 | 24964 ft | 286 kts | 87° |
| 2026-04-25 20:22 | 50.61188 | -118.12633 | 24997 ft | 284 kts | 87° |
| 2026-04-25 20:22 | 50.61140 | -118.09528 | 25033 ft | 287 kts | 87° |
| 2026-04-25 20:23 | 50.61089 | -118.06356 | 25037 ft | 294 kts | 87° |
| 2026-04-25 20:23 | 50.61037 | -118.03145 | 25044 ft | 301 kts | 88° |
| 2026-04-25 20:23 | 50.60983 | -117.99802 | 25068 ft | 306 kts | 87° |
| 2026-04-25 20:23 | 50.60925 | -117.96390 | 25070 ft | 311 kts | 88° |
| 2026-04-25 20:24 | 50.60867 | -117.92983 | 25077 ft | 316 kts | 88° |
| 2026-04-25 20:24 | 50.60807 | -117.89515 | 25082 ft | 320 kts | 88° |
| 2026-04-25 20:24 | 50.60745 | -117.86019 | 25090 ft | 324 kts | 87° |
| 2026-04-25 20:24 | 50.60680 | -117.82434 | 25089 ft | 327 kts | 88° |
| 2026-04-25 20:25 | 50.60616 | -117.78897 | 25080 ft | 329 kts | 88° |
| 2026-04-25 20:25 | 50.60548 | -117.75295 | 25076 ft | 331 kts | 88° |
| 2026-04-25 20:25 | 50.60479 | -117.71644 | 25087 ft | 333 kts | 88° |
| 2026-04-25 20:25 | 50.60410 | -117.68032 | 25073 ft | 335 kts | 88° |
| 2026-04-25 20:26 | 50.60338 | -117.64360 | 25050 ft | 337 kts | 88° |
| 2026-04-25 20:26 | 50.60265 | -117.60685 | 25029 ft | 338 kts | 88° |
| 2026-04-25 20:26 | 50.60190 | -117.56961 | 25006 ft | 339 kts | 88° |
| 2026-04-25 20:26 | 50.60115 | -117.53286 | 24979 ft | 340 kts | 88° |
| 2026-04-25 20:27 | 50.60038 | -117.49586 | 24949 ft | 341 kts | 88° |
| 2026-04-25 20:27 | 50.59959 | -117.45837 | 24949 ft | 341 kts | 88° |
| 2026-04-25 20:27 | 50.59880 | -117.42148 | 24960 ft | 341 kts | 88° |
| 2026-04-25 20:27 | 50.59798 | -117.38394 | 24970 ft | 340 kts | 88° |
| 2026-04-25 20:28 | 50.59716 | -117.34701 | 24979 ft | 340 kts | 88° |
| 2026-04-25 20:28 | 50.59634 | -117.31001 | 24991 ft | 339 kts | 88° |
| 2026-04-25 20:28 | 50.59550 | -117.27303 | 25025 ft | 339 kts | 88° |
| 2026-04-25 20:28 | 50.59465 | -117.23630 | 25015 ft | 339 kts | 89° |
| 2026-04-25 20:29 | 50.59379 | -117.19946 | 25030 ft | 339 kts | 88° |
| 2026-04-25 20:29 | 50.59293 | -117.16237 | 25039 ft | 339 kts | 88° |
| 2026-04-25 20:29 | 50.59203 | -117.12501 | 25035 ft | 340 kts | 88° |
| 2026-04-25 20:29 | 50.59114 | -117.08829 | 25028 ft | 340 kts | 88° |
| 2026-04-25 20:30 | 50.59022 | -117.05104 | 25035 ft | 338 kts | 88° |
| 2026-04-25 20:30 | 50.58931 | -117.01443 | 25035 ft | 337 kts | 88° |
| 2026-04-25 20:30 | 50.58839 | -116.97783 | 25042 ft | 335 kts | 88° |
| 2026-04-25 20:30 | 50.58747 | -116.94142 | 25031 ft | 334 kts | 88° |
| 2026-04-25 20:31 | 50.58652 | -116.90462 | 25010 ft | 333 kts | 88° |
| 2026-04-25 20:31 | 50.58557 | -116.86840 | 25018 ft | 332 kts | 88° |
| 2026-04-25 20:31 | 50.58462 | -116.83255 | 25041 ft | 331 kts | 88° |
| 2026-04-25 20:31 | 50.58367 | -116.79667 | 25038 ft | 330 kts | 88° |
| 2026-04-25 20:32 | 50.58270 | -116.76042 | 25001 ft | 331 kts | 88° |
| 2026-04-25 20:32 | 50.58170 | -116.72426 | 25004 ft | 331 kts | 88° |
| 2026-04-25 20:32 | 50.58070 | -116.68845 | 24989 ft | 331 kts | 88° |
| 2026-04-25 20:32 | 50.57970 | -116.65220 | 24962 ft | 331 kts | 88° |
| 2026-04-25 20:33 | 50.57864 | -116.61627 | 24937 ft | 332 kts | 88° |
| 2026-04-25 20:33 | 50.57769 | -116.58038 | 24932 ft | 331 kts | 87° |
| 2026-04-25 20:33 | 50.57663 | -116.54402 | 24880 ft | 331 kts | 88° |
| 2026-04-25 20:33 | 50.57592 | -116.52008 | 24846 ft | 332 kts | 88° |
| 2026-04-25 20:34 | 50.57448 | -116.47212 | 24850 ft | 329 kts | 88° |
| 2026-04-25 20:34 | 50.57341 | -116.43602 | 24881 ft | 328 kts | 87° |
| 2026-04-25 20:34 | 50.57233 | -116.40035 | 24772 ft | 332 kts | 88° |
| 2026-04-25 20:34 | 50.57122 | -116.36428 | 24607 ft | 336 kts | 88° |
| 2026-04-25 20:35 | 50.57014 | -116.32745 | 24380 ft | 337 kts | 89° |
| 2026-04-25 20:35 | 50.56898 | -116.29067 | 24164 ft | 332 kts | 88° |
| 2026-04-25 20:35 | 50.56788 | -116.25504 | 23938 ft | 329 kts | 89° |
| 2026-04-25 20:35 | 50.56675 | -116.21935 | 23718 ft | 327 kts | 89° |
| 2026-04-25 20:36 | 50.56562 | -116.18394 | 23491 ft | 325 kts | 89° |
| 2026-04-25 20:36 | 50.56449 | -116.14848 | 23260 ft | 323 kts | 89° |
| 2026-04-25 20:36 | 50.56334 | -116.11320 | 23028 ft | 321 kts | 89° |
| 2026-04-25 20:36 | 50.56220 | -116.07839 | 22806 ft | 320 kts | 88° |
| 2026-04-25 20:37 | 50.56106 | -116.04392 | 22581 ft | 319 kts | 89° |
| 2026-04-25 20:37 | 50.55989 | -116.00910 | 22350 ft | 317 kts | 89° |
| 2026-04-25 20:37 | 50.55874 | -115.97480 | 22128 ft | 317 kts | 89° |
| 2026-04-25 20:37 | 50.55757 | -115.94041 | 21891 ft | 317 kts | 88° |
| 2026-04-25 20:38 | 50.55638 | -115.90578 | 21652 ft | 316 kts | 88° |
| 2026-04-25 20:38 | 50.55518 | -115.87113 | 21402 ft | 317 kts | 89° |
| 2026-04-25 20:38 | 50.55399 | -115.83699 | 21158 ft | 317 kts | 89° |
| 2026-04-25 20:38 | 50.55277 | -115.80232 | 20910 ft | 317 kts | 88° |
| 2026-04-25 20:39 | 50.55155 | -115.76812 | 20665 ft | 317 kts | 88° |
| 2026-04-25 20:39 | 50.55032 | -115.73370 | 20406 ft | 317 kts | 89° |
| 2026-04-25 20:39 | 50.54906 | -115.69901 | 20163 ft | 317 kts | 89° |
| 2026-04-25 20:39 | 50.54822 | -115.67598 | 19989 ft | 317 kts | 89° |
| 2026-04-25 20:40 | 50.54653 | -115.62998 | 19651 ft | 317 kts | 89° |
| 2026-04-25 20:40 | 50.54526 | -115.59559 | 19403 ft | 317 kts | 89° |
| 2026-04-25 20:40 | 50.54398 | -115.56145 | 19155 ft | 316 kts | 89° |
| 2026-04-25 20:40 | 50.54268 | -115.52693 | 18903 ft | 316 kts | 89° |
| 2026-04-25 20:41 | 50.54136 | -115.49244 | 18652 ft | 316 kts | 89° |
| 2026-04-25 20:41 | 50.54055 | -115.45822 | 18401 ft | 314 kts | 83° |
| 2026-04-25 20:41 | 50.54517 | -115.42551 | 18199 ft | 305 kts | 67° |
| 2026-04-25 20:41 | 50.55199 | -115.39392 | 17958 ft | 305 kts | 66° |
| 2026-04-25 20:42 | 50.55884 | -115.36244 | 17730 ft | 305 kts | 66° |
| 2026-04-25 20:42 | 50.56566 | -115.33102 | 17495 ft | 304 kts | 67° |
| 2026-04-25 20:42 | 50.56947 | -115.31343 | 17387 ft | 304 kts | 67° |
| 2026-04-25 20:42 | 50.57624 | -115.28204 | 17139 ft | 304 kts | 68° |
| 2026-04-25 20:43 | 50.58301 | -115.25048 | 16911 ft | 303 kts | 68° |
| 2026-04-25 20:43 | 50.58965 | -115.21941 | 16691 ft | 302 kts | 68° |
| 2026-04-25 20:43 | 50.59636 | -115.18797 | 16483 ft | 301 kts | 68° |
| 2026-04-25 20:43 | 50.60186 | -115.15642 | 16202 ft | 307 kts | 79° |
| 2026-04-25 20:44 | 50.60075 | -115.12291 | 15945 ft | 306 kts | 97° |
| 2026-04-25 20:44 | 50.59689 | -115.09058 | 15651 ft | 296 kts | 98° |
| 2026-04-25 20:44 | 50.59309 | -115.05956 | 15367 ft | 286 kts | 97° |
| 2026-04-25 20:44 | 50.58937 | -115.02924 | 15084 ft | 279 kts | 97° |
| 2026-04-25 20:45 | 50.58561 | -114.99966 | 14792 ft | 272 kts | 98° |
| 2026-04-25 20:45 | 50.58213 | -114.97109 | 14492 ft | 261 kts | 97° |
| 2026-04-25 20:45 | 50.57885 | -114.94362 | 14187 ft | 252 kts | 97° |
| 2026-04-25 20:45 | 50.57567 | -114.91729 | 13910 ft | 244 kts | 98° |
| 2026-04-25 20:46 | 50.57251 | -114.89144 | 13576 ft | 234 kts | 97° |
| 2026-04-25 20:46 | 50.56937 | -114.86691 | 13275 ft | 225 kts | 98° |
| 2026-04-25 20:46 | 50.56645 | -114.84362 | 12982 ft | 217 kts | 97° |
| 2026-04-25 20:46 | 50.56380 | -114.81997 | 12730 ft | 219 kts | 90° |
| 2026-04-25 20:47 | 50.56576 | -114.79597 | 12548 ft | 232 kts | 75° |
| 2026-04-25 20:47 | 50.56958 | -114.77070 | 12272 ft | 244 kts | 73° |
| 2026-04-25 20:47 | 50.57358 | -114.74480 | 11946 ft | 244 kts | 73° |
| 2026-04-25 20:47 | 50.57735 | -114.71904 | 11598 ft | 241 kts | 73° |
| 2026-04-25 20:48 | 50.58110 | -114.69339 | 11233 ft | 239 kts | 73° |
| 2026-04-25 20:48 | 50.58488 | -114.66827 | 10877 ft | 236 kts | 73° |
| 2026-04-25 20:48 | 50.58857 | -114.64330 | 10509 ft | 235 kts | 73° |
| 2026-04-25 20:48 | 50.59238 | -114.61839 | 10149 ft | 233 kts | 73° |
| 2026-04-25 20:49 | 50.59618 | -114.59399 | 9795 ft | 231 kts | 72° |
| 2026-04-25 20:49 | 50.59994 | -114.56956 | 9432 ft | 230 kts | 73° |
| 2026-04-25 20:49 | 50.60371 | -114.54542 | 9075 ft | 229 kts | 74° |
| 2026-04-25 20:49 | 50.60753 | -114.52097 | 8759 ft | 226 kts | 72° |
| 2026-04-25 20:50 | 50.61116 | -114.49712 | 8480 ft | 222 kts | 73° |
| 2026-04-25 20:50 | 50.61460 | -114.47344 | 8184 ft | 218 kts | 73° |
| 2026-04-25 20:50 | 50.61805 | -114.45064 | 7901 ft | 213 kts | 73° |
| 2026-04-25 20:50 | 50.62145 | -114.42834 | 7622 ft | 208 kts | 72° |
| 2026-04-25 20:51 | 50.62466 | -114.40623 | 7333 ft | 203 kts | 72° |
| 2026-04-25 20:51 | 50.62913 | -114.38626 | 7026 ft | 190 kts | 51° |
| 2026-04-25 20:51 | 50.63799 | -114.37163 | 6734 ft | 184 kts | 40° |
| 2026-04-25 20:51 | 50.64758 | -114.35736 | 6478 ft | 194 kts | 40° |
| 2026-04-25 20:52 | 50.65741 | -114.34300 | 6350 ft | 194 kts | 40° |
| 2026-04-25 20:52 | 50.66401 | -114.33315 | 6302 ft | 192 kts | 40° |
| 2026-04-25 20:52 | 50.67674 | -114.31416 | 6264 ft | 184 kts | 41° |
| 2026-04-25 20:52 | 50.68601 | -114.30068 | 6265 ft | 178 kts | 40° |
| 2026-04-25 20:53 | 50.69486 | -114.28760 | 6273 ft | 174 kts | 40° |
| 2026-04-25 20:53 | 50.70349 | -114.27420 | 6269 ft | 174 kts | 41° |
| 2026-04-25 20:53 | 50.71220 | -114.26066 | 6266 ft | 175 kts | 41° |
| 2026-04-25 20:53 | 50.72089 | -114.24721 | 6269 ft | 175 kts | 40° |
| 2026-04-25 20:54 | 50.72967 | -114.23363 | 6275 ft | 179 kts | 40° |
| 2026-04-25 20:54 | 50.73855 | -114.21976 | 6272 ft | 182 kts | 40° |
| 2026-04-25 20:54 | 50.74764 | -114.20558 | 6267 ft | 185 kts | 41° |
| 2026-04-25 20:54 | 50.75691 | -114.19145 | 6279 ft | 187 kts | 40° |
| 2026-04-25 20:55 | 50.76623 | -114.17709 | 6289 ft | 190 kts | 40° |
| 2026-04-25 20:55 | 50.77562 | -114.16210 | 6283 ft | 193 kts | 40° |
| 2026-04-25 20:55 | 50.78507 | -114.14677 | 6284 ft | 196 kts | 40° |
| 2026-04-25 20:55 | 50.79452 | -114.13110 | 6281 ft | 199 kts | 40° |
| 2026-04-25 20:56 | 50.80420 | -114.11526 | 6272 ft | 197 kts | 40° |
| 2026-04-25 20:56 | 50.81324 | -114.10018 | 6250 ft | 180 kts | 40° |
| 2026-04-25 20:56 | 50.82117 | -114.08642 | 6232 ft | 158 kts | 40° |
| 2026-04-25 20:56 | 50.82809 | -114.07404 | 6248 ft | 147 kts | 41° |
| 2026-04-25 20:57 | 50.83569 | -114.06323 | 6272 ft | 147 kts | 23° |
| 2026-04-25 20:57 | 50.84493 | -114.05538 | 6310 ft | 156 kts | 22° |
| 2026-04-25 20:57 | 50.85485 | -114.04703 | 6308 ft | 163 kts | 22° |
| 2026-04-25 20:57 | 50.86492 | -114.03877 | 6309 ft | 162 kts | 22° |
| 2026-04-25 20:58 | 50.87472 | -114.03080 | 6302 ft | 156 kts | 22° |
| 2026-04-25 20:58 | 50.88401 | -114.02319 | 6289 ft | 141 kts | 20° |
| 2026-04-25 20:58 | 50.89294 | -114.02160 | 6287 ft | 126 kts | 349° |
| 2026-04-25 20:58 | 50.90151 | -114.02233 | 6306 ft | 127 kts | 3° |
| 2026-04-25 20:59 | 50.91067 | -114.02139 | 6310 ft | 131 kts | 356° |
| 2026-04-25 20:59 | 50.91970 | -114.02179 | 6310 ft | 131 kts | 358° |
| 2026-04-25 20:59 | 50.92902 | -114.02156 | 6331 ft | 138 kts | 358° |
| 2026-04-25 20:59 | 50.93890 | -114.02160 | 6325 ft | 141 kts | 357° |
| 2026-04-25 21:00 | 50.94860 | -114.02159 | 6321 ft | 139 kts | 358° |
| 2026-04-25 21:00 | 50.95501 | -114.02156 | 6312 ft | 134 kts | 358° |
| 2026-04-25 21:00 | 50.97552 | -114.02157 | 6025 ft | 122 kts | 357° |
| 2026-04-25 21:01 | 50.98384 | -114.02157 | 5800 ft | 119 kts | 357° |
| 2026-04-25 21:01 | 50.99230 | -114.02149 | 5679 ft | 127 kts | 358° |
| 2026-04-25 21:01 | 51.00143 | -114.02147 | 5538 ft | 135 kts | 357° |
| 2026-04-25 21:01 | 51.01086 | -114.02156 | 5319 ft | 136 kts | 357° |
| 2026-04-25 21:02 | 51.02020 | -114.02157 | 5113 ft | 134 kts | 358° |
| 2026-04-25 21:02 | 51.02954 | -114.02156 | 4911 ft | 131 kts | 358° |
| 2026-04-25 21:02 | 51.03854 | -114.02155 | 4733 ft | 130 kts | 358° |
| 2026-04-25 21:02 | 51.04774 | -114.02150 | 4563 ft | 135 kts | 358° |
| 2026-04-25 21:03 | 51.05718 | -114.02113 | 4421 ft | 136 kts | 1° |
| 2026-04-25 21:03 | 51.06671 | -114.02065 | 4196 ft | 139 kts | 359° |
| 2026-04-25 21:03 | 51.07633 | -114.02110 | 3959 ft | 133 kts | 357° |
| 2026-04-25 21:03 | 51.08524 | -114.02130 | 3862 ft | 124 kts | 360° |
| 2026-04-25 21:04 | 51.09409 | -114.02127 | 3646 ft | 128 kts | 360° |
| 2026-04-25 21:04 | 51.10290 | -114.02119 | 3548 ft | 122 kts | 358° |
| 2026-04-25 21:04 | 51.11068 | -114.02135 | 3546 ft | 92 kts | 359° |
| 2026-04-25 21:04 | 51.11557 | -114.02137 | 3551 ft | 53 kts | 1° |
| 2026-04-25 21:05 | 51.11867 | -114.02138 | 3551 ft | 40 kts | 359° |
| 2026-04-25 21:05 | 51.12106 | -114.02138 | 3551 ft | 29 kts | 1° |
| 2026-04-25 21:05 | 51.12273 | -114.02089 | 3551 ft | 21 kts | 20° |
| 2026-04-25 21:05 | 51.12382 | -114.02003 | 3551 ft | 3 kts | 31° |